createdAt,value
2022-12-21T00:01:48.250Z,53.90
2022-12-21T00:06:52.355Z,54.04
2022-12-21T00:11:55.845Z,54.17
2022-12-21T00:17:00.779Z,53.54
2022-12-21T00:22:04.216Z,53.84
2022-12-21T00:27:07.597Z,54.44
2022-12-21T00:32:12.679Z,53.85
2022-12-21T00:37:16.026Z,53.74
2022-12-21T00:42:19.403Z,54.14
2022-12-21T00:47:24.158Z,54.16
2022-12-21T00:52:29.477Z,54.21
2022-12-21T00:57:32.832Z,53.78
2022-12-21T01:02:38.141Z,53.91
2022-12-21T01:07:41.741Z,53.82
2022-12-21T01:12:45.039Z,53.66
2022-12-21T01:17:50.170Z,53.94
2022-12-21T01:22:53.475Z,53.82
2022-12-21T01:27:57.134Z,54.35
2022-12-21T01:33:02.018Z,54.06
2022-12-21T01:38:05.621Z,54.00
2022-12-21T01:43:19.892Z,53.85
2022-12-21T01:48:24.711Z,54.30
2022-12-21T01:53:32.985Z,54.26
2022-12-21T01:58:37.653Z,54.26
2022-12-21T02:03:44.913Z,54.12
2022-12-21T02:08:50.760Z,54.31
2022-12-21T02:13:54.103Z,53.91
2022-12-21T02:20:02.881Z,54.63
2022-12-21T02:25:40.673Z,54.93
2022-12-21T02:31:01.570Z,54.70
2022-12-21T02:36:18.683Z,53.97
2022-12-21T02:41:37.943Z,54.39
2022-12-21T02:46:49.136Z,54.58
2022-12-21T02:51:58.807Z,54.38
2022-12-21T02:57:02.315Z,54.51
2022-12-21T03:02:38.252Z,54.31
2022-12-21T03:07:54.246Z,54.62
2022-12-21T03:13:06.670Z,54.15
2022-12-21T03:18:20.934Z,54.62
2022-12-21T03:23:32.144Z,54.48
2022-12-21T03:28:38.437Z,54.43
2022-12-21T03:33:49.388Z,55.27
2022-12-21T03:38:56.389Z,54.54
2022-12-21T03:44:03.844Z,55.12
2022-12-21T03:49:14.340Z,55.15
2022-12-21T03:54:25.576Z,54.99
2022-12-21T03:59:29.601Z,54.87
2022-12-21T04:04:39.489Z,55.18
2022-12-21T04:09:43.356Z,55.39
2022-12-21T04:14:46.726Z,55.95
2022-12-21T04:20:00.915Z,56.14
2022-12-21T04:25:22.187Z,55.97
2022-12-21T04:30:25.673Z,55.54
2022-12-21T04:35:30.580Z,56.59
2022-12-21T04:40:33.989Z,56.01
2022-12-21T04:45:37.444Z,56.58
2022-12-21T04:50:42.767Z,56.63
2022-12-21T04:55:46.780Z,56.95
2022-12-21T05:00:50.255Z,56.72
2022-12-21T05:05:55.059Z,56.84
2022-12-21T05:11:09.121Z,57.31
2022-12-21T05:16:14.369Z,57.31
2022-12-21T05:21:19.259Z,57.49
2022-12-21T05:26:22.884Z,57.94
2022-12-21T05:31:26.424Z,58.54
2022-12-21T05:36:31.761Z,59.02
2022-12-21T05:41:35.029Z,59.54
2022-12-21T05:46:39.066Z,58.77
2022-12-21T05:51:43.943Z,58.84
2022-12-21T05:56:47.126Z,59.47
2022-12-21T06:01:50.553Z,58.77
2022-12-21T06:06:55.546Z,58.90
2022-12-21T06:11:58.606Z,58.83
2022-12-21T06:17:02.022Z,58.85
2022-12-21T06:22:06.905Z,59.31
2022-12-21T06:27:10.362Z,59.15
2022-12-21T06:32:13.694Z,59.19
2022-12-21T06:37:18.557Z,58.82
2022-12-21T06:42:22.032Z,59.04
2022-12-21T06:47:25.513Z,59.26
2022-12-21T06:52:30.421Z,59.43
2022-12-21T06:57:34.217Z,60.11
2022-12-21T07:02:37.958Z,60.72
2022-12-21T07:07:43.229Z,60.61
2022-12-21T07:12:46.555Z,59.53
2022-12-21T07:17:50.031Z,59.56
2022-12-21T07:22:54.945Z,60.00
2022-12-21T07:27:58.645Z,60.07
2022-12-21T07:33:02.191Z,60.85
2022-12-21T07:38:07.025Z,61.15
2022-12-21T07:43:10.741Z,62.01
2022-12-21T07:48:14.604Z,60.83
2022-12-21T07:53:19.731Z,61.09
2022-12-21T07:58:23.184Z,61.33
2022-12-21T08:03:26.767Z,61.15
2022-12-21T08:08:31.797Z,61.00
2022-12-21T08:13:35.274Z,60.72
2022-12-21T08:18:39.411Z,60.29
2022-12-21T08:23:44.255Z,60.70
2022-12-21T08:28:48.539Z,60.82
2022-12-21T08:33:52.037Z,60.07
2022-12-21T08:39:13.427Z,60.19
2022-12-21T08:44:16.923Z,60.31
2022-12-21T08:49:20.476Z,61.40
2022-12-21T08:54:25.421Z,61.02
2022-12-21T08:59:28.858Z,60.44
2022-12-21T09:04:32.431Z,60.64
2022-12-21T09:09:37.264Z,60.09
2022-12-21T09:14:40.803Z,60.35
2022-12-21T09:19:44.451Z,60.10
2022-12-21T09:24:49.437Z,60.34
2022-12-21T09:29:52.959Z,60.10
2022-12-21T09:34:56.526Z,60.60
2022-12-21T09:40:01.457Z,60.58
2022-12-21T09:45:18.145Z,60.66
2022-12-21T09:50:25.221Z,59.96
2022-12-21T09:55:34.859Z,60.32
2022-12-21T10:00:39.233Z,60.58
2022-12-21T10:05:59.988Z,62.35
2022-12-21T10:11:14.652Z,61.51
2022-12-21T10:16:42.947Z,60.62
2022-12-21T10:21:55.751Z,60.72
2022-12-21T10:27:05.983Z,60.57
2022-12-21T10:32:14.993Z,60.50
2022-12-21T10:37:19.976Z,60.12
2022-12-21T10:48:09.251Z,60.67
2022-12-21T10:53:21.524Z,60.26
2022-12-21T10:58:29.518Z,61.17
2022-12-21T11:03:37.794Z,60.51
2022-12-21T11:08:47.333Z,60.64
2022-12-21T11:14:02.482Z,61.37
2022-12-21T11:19:14.163Z,61.58
2022-12-21T11:24:23.182Z,62.34
2022-12-21T11:29:31.566Z,62.63
2022-12-21T11:34:38.405Z,63.10
2022-12-21T11:39:46.005Z,62.51
2022-12-21T11:44:52.466Z,63.01
2022-12-21T11:50:29.855Z,62.83
2022-12-21T11:55:39.072Z,61.78
2022-12-21T12:01:02.141Z,62.98
2022-12-21T12:06:23.877Z,62.32
2022-12-21T12:11:42.071Z,63.01
2022-12-21T12:17:00.686Z,63.10
2022-12-21T12:22:27.683Z,63.30
2022-12-21T12:27:53.680Z,62.44
2022-12-21T12:33:09.919Z,62.13
2022-12-21T12:38:19.453Z,61.95
2022-12-21T12:43:34.270Z,61.88
2022-12-21T12:48:48.215Z,62.32
2022-12-21T12:53:58.873Z,62.97
2022-12-21T12:59:08.661Z,64.16
2022-12-21T13:04:28.010Z,63.59
2022-12-21T13:09:42.930Z,63.43
2022-12-21T13:14:48.987Z,63.45
2022-12-21T13:19:55.549Z,64.05
2022-12-21T13:25:01.998Z,63.13
2022-12-21T13:30:14.784Z,63.22
2022-12-21T13:35:27.586Z,62.77
2022-12-21T13:40:38.873Z,63.11
2022-12-21T13:45:49.268Z,64.43
2022-12-21T13:51:09.491Z,65.35
2022-12-21T13:56:22.663Z,64.92
2022-12-21T14:01:41.472Z,65.85
2022-12-21T14:07:16.129Z,64.59
2022-12-21T14:12:34.390Z,65.28
2022-12-21T14:17:46.729Z,64.65
2022-12-21T14:22:51.811Z,64.20
2022-12-21T14:28:08.173Z,64.87
2022-12-21T14:33:18.537Z,64.67
2022-12-21T14:38:30.727Z,64.97
2022-12-21T14:43:34.280Z,64.88
2022-12-21T14:49:05.370Z,65.86
2022-12-21T14:54:14.566Z,65.49
2022-12-21T14:59:18.965Z,65.40
2022-12-21T15:04:32.523Z,64.86
2022-12-21T15:09:37.412Z,65.16
2022-12-21T15:14:45.719Z,65.35
2022-12-21T15:19:53.503Z,65.67
2022-12-21T15:25:02.314Z,66.03
2022-12-21T15:30:22.560Z,65.18
2022-12-21T15:35:35.034Z,64.93
2022-12-21T15:40:40.396Z,65.67
2022-12-21T15:45:51.169Z,65.49
2022-12-21T15:50:57.215Z,65.60
2022-12-21T15:56:02.050Z,65.38
2022-12-21T16:01:18.859Z,65.62
2022-12-21T16:06:26.695Z,66.05
2022-12-21T16:12:10.659Z,65.87
2022-12-21T16:16:59.505Z,66.81
2022-12-21T16:22:07.604Z,66.74
2022-12-21T16:27:18.579Z,67.64
2022-12-21T16:32:23.408Z,66.80
2022-12-21T16:37:27.416Z,68.50
2022-12-21T16:42:36.198Z,67.95
2022-12-21T16:47:39.578Z,67.55
2022-12-21T16:52:50.433Z,68.14
2022-12-21T16:57:58.968Z,67.37
2022-12-21T17:03:11.882Z,68.54
2022-12-21T17:08:25.057Z,67.38
2022-12-21T17:13:30.413Z,67.13
2022-12-21T17:18:47.919Z,67.63
2022-12-21T17:23:56.169Z,68.71
2022-12-21T17:29:00.959Z,68.20
2022-12-21T17:34:05.159Z,69.27
2022-12-21T17:39:14.567Z,68.22
2022-12-21T17:49:42.912Z,68.77
2022-12-21T17:54:46.432Z,68.49
2022-12-21T17:59:51.231Z,69.04
2022-12-21T18:04:56.257Z,69.55
2022-12-21T18:09:59.760Z,67.82
2022-12-21T18:15:04.831Z,68.70
2022-12-21T18:20:15.881Z,69.35
2022-12-21T18:25:22.219Z,68.50
2022-12-21T18:30:29.169Z,68.11
2022-12-21T18:35:32.620Z,67.52
2022-12-21T18:40:35.926Z,67.94
2022-12-21T18:45:40.737Z,68.82
2022-12-21T18:50:44.723Z,68.86
2022-12-21T18:55:48.778Z,68.60
2022-12-21T19:00:53.585Z,68.41
2022-12-21T19:05:57.831Z,67.84
2022-12-21T19:11:01.223Z,67.98
2022-12-21T19:16:10.003Z,67.57
2022-12-21T19:21:22.057Z,66.87
2022-12-21T19:26:29.344Z,67.58
2022-12-21T19:31:34.261Z,67.65
2022-12-21T19:36:38.824Z,67.75
2022-12-21T19:41:42.877Z,67.21
2022-12-21T19:46:47.872Z,67.78
2022-12-21T19:51:52.168Z,67.58
2022-12-21T19:56:58.010Z,68.41
2022-12-21T20:02:05.828Z,68.47
2022-12-21T20:07:12.655Z,67.79
2022-12-21T20:12:16.736Z,67.56
2022-12-21T20:17:24.610Z,68.00
2022-12-21T20:22:29.550Z,67.35
2022-12-21T20:27:34.271Z,67.68
2022-12-21T20:32:39.193Z,67.24
2022-12-21T20:37:42.204Z,67.79
2022-12-21T20:43:04.201Z,68.66
2022-12-21T20:48:16.309Z,68.24
2022-12-21T20:53:21.444Z,67.02
2022-12-21T20:58:24.832Z,67.83
2022-12-21T21:03:32.865Z,67.30
2022-12-21T21:08:36.471Z,67.54
2022-12-21T21:13:40.291Z,68.03
2022-12-21T21:18:45.229Z,67.97
2022-12-21T21:23:48.240Z,67.30
2022-12-21T21:28:51.673Z,67.27
2022-12-21T21:33:56.516Z,67.28
2022-12-21T21:39:22.124Z,67.54
2022-12-21T21:44:30.298Z,68.10
2022-12-21T21:49:35.170Z,68.18
2022-12-21T21:54:38.334Z,68.46
2022-12-21T21:59:41.772Z,67.98
2022-12-21T22:04:49.858Z,67.84
2022-12-21T22:16:03.457Z,67.94
2022-12-21T22:21:51.105Z,68.51
2022-12-21T22:27:11.742Z,68.04
2022-12-21T22:32:16.628Z,68.33
2022-12-21T22:37:37.974Z,69.58
2022-12-21T22:42:46.481Z,68.79
2022-12-21T22:47:50.484Z,68.57
2022-12-21T22:52:55.434Z,69.10
2022-12-21T22:57:58.612Z,67.91
2022-12-21T23:03:02.339Z,67.91
2022-12-21T23:08:07.213Z,68.49
2022-12-21T23:13:32.386Z,67.45
2022-12-21T23:18:37.453Z,67.44
2022-12-21T23:23:59.371Z,67.18
2022-12-21T23:29:02.781Z,66.54
2022-12-21T23:34:23.584Z,67.11
2022-12-21T23:40:01.404Z,67.17
2022-12-21T23:45:06.725Z,67.85
2022-12-21T23:50:28.436Z,66.99
2022-12-21T23:55:51.456Z,67.55
